createdAt,value
2019-02-15T00:00:23.024Z,6.30
2019-02-15T00:02:52.489Z,6.30
2019-02-15T00:05:21.885Z,6.20
2019-02-15T00:07:51.277Z,6.20
2019-02-15T00:10:20.688Z,6.20
2019-02-15T00:12:50.255Z,6.20
2019-02-15T00:15:19.692Z,6.20
2019-02-15T00:18:25.221Z,6.20
2019-02-15T00:21:00.243Z,6.20
2019-02-15T00:23:29.616Z,6.20
2019-02-15T00:25:59.077Z,6.20
2019-02-15T00:28:28.525Z,6.20
2019-02-15T00:30:58.030Z,6.10
2019-02-15T00:33:27.431Z,6.10
2019-02-15T00:35:56.820Z,6.10
2019-02-15T00:38:26.249Z,6.00
2019-02-15T00:40:56.549Z,6.10
2019-02-15T00:43:25.928Z,6.20
2019-02-15T00:46:02.675Z,6.20
2019-02-15T00:48:32.116Z,6.20
2019-02-15T00:51:05.604Z,6.20
2019-02-15T00:53:42.006Z,6.10
2019-02-15T00:56:16.372Z,6.20
2019-02-15T00:58:56.635Z,6.10
2019-02-15T01:01:33.074Z,6.20
2019-02-15T01:04:24.766Z,6.20
2019-02-15T01:07:02.241Z,6.20
2019-02-15T01:09:40.488Z,6.10
2019-02-15T01:12:15.458Z,6.20
2019-02-15T01:14:44.945Z,6.20
2019-02-15T01:17:14.322Z,6.20
2019-02-15T01:19:43.821Z,6.10
2019-02-15T01:22:13.284Z,6.00
2019-02-15T01:24:42.713Z,6.00
2019-02-15T01:27:23.193Z,5.90
2019-02-15T01:32:03.949Z,5.90
2019-02-15T01:34:39.309Z,6.00
2019-02-15T01:37:15.821Z,6.00
2019-02-15T01:39:55.220Z,6.00
2019-02-15T01:42:29.663Z,6.00
2019-02-15T01:45:11.134Z,6.00
2019-02-15T01:47:44.373Z,6.00
2019-02-15T01:50:13.729Z,5.90
2019-02-15T01:52:43.246Z,5.90
2019-02-15T01:55:12.718Z,6.00
2019-02-15T01:57:42.118Z,6.00
2019-02-15T02:00:13.812Z,5.80
2019-02-15T02:02:43.253Z,5.70
2019-02-15T02:05:12.681Z,5.60
2019-02-15T02:07:42.076Z,5.40
2019-02-15T02:10:11.973Z,5.50
2019-02-15T02:12:41.378Z,5.40
2019-02-15T02:15:11.426Z,5.50
2019-02-15T02:17:40.966Z,5.40
2019-02-15T02:20:10.931Z,5.40
2019-02-15T02:22:40.332Z,5.50
2019-02-15T02:25:09.747Z,5.60
2019-02-15T02:27:45.900Z,5.60
2019-02-15T02:30:15.363Z,5.60
2019-02-15T02:32:44.765Z,5.60
2019-02-15T02:35:14.172Z,5.60
2019-02-15T02:37:43.697Z,5.60
2019-02-15T02:40:13.137Z,5.60
2019-02-15T02:42:42.495Z,5.60
2019-02-15T02:45:11.905Z,5.70
2019-02-15T02:47:41.356Z,5.70
2019-02-15T02:50:10.918Z,5.60
2019-02-15T02:52:40.325Z,5.50
2019-02-15T02:55:09.692Z,5.50
2019-02-15T02:57:39.058Z,5.50
2019-02-15T03:00:08.811Z,5.50
2019-02-15T03:02:38.256Z,5.50
2019-02-15T03:05:07.774Z,5.50
2019-02-15T03:07:37.188Z,5.50
2019-02-15T03:10:06.754Z,5.50
2019-02-15T03:12:36.262Z,5.50
2019-02-15T03:15:05.827Z,5.50
2019-02-15T03:17:35.301Z,5.50
2019-02-15T03:20:05.076Z,5.60
2019-02-15T03:22:34.473Z,5.60
2019-02-15T03:25:03.962Z,5.60
2019-02-15T03:27:33.419Z,5.60
2019-02-15T03:30:02.826Z,5.60
2019-02-15T03:32:32.240Z,5.50
2019-02-15T03:35:01.612Z,5.50
2019-02-15T03:37:35.094Z,5.50
2019-02-15T03:40:11.691Z,5.60
2019-02-15T03:42:41.131Z,5.50
2019-02-15T03:45:10.583Z,5.40
2019-02-15T03:47:39.990Z,5.40
2019-02-15T03:50:09.406Z,5.50
2019-02-15T03:52:38.905Z,5.40
2019-02-15T03:55:08.350Z,5.30
2019-02-15T03:57:37.818Z,5.20
2019-02-15T04:00:09.317Z,4.90
2019-02-15T04:02:38.756Z,4.70
2019-02-15T04:05:08.170Z,4.60
2019-02-15T04:07:37.588Z,4.60
2019-02-15T04:10:08.725Z,4.50
2019-02-15T04:12:38.207Z,4.40
2019-02-15T04:15:07.762Z,4.40
2019-02-15T04:17:37.220Z,4.50
2019-02-15T04:20:08.594Z,4.60
2019-02-15T04:22:38.046Z,4.80
2019-02-15T04:25:07.599Z,4.90
2019-02-15T04:27:36.985Z,4.90
2019-02-15T04:30:07.869Z,4.90
2019-02-15T04:32:37.236Z,4.90
2019-02-15T04:35:06.932Z,4.80
2019-02-15T04:37:36.405Z,4.90
2019-02-15T04:40:06.478Z,5.00
2019-02-15T04:42:35.965Z,5.00
2019-02-15T04:45:06.197Z,5.10
2019-02-15T04:47:35.590Z,5.20
2019-02-15T04:50:05.657Z,5.20
2019-02-15T04:52:35.112Z,5.20
2019-02-15T04:55:04.798Z,5.20
2019-02-15T04:57:34.341Z,5.10
2019-02-15T05:00:03.778Z,5.10
2019-02-15T05:02:33.197Z,5.00
2019-02-15T05:05:05.583Z,5.00
2019-02-15T05:07:35.006Z,4.90
2019-02-15T05:10:04.455Z,4.90
2019-02-15T05:12:33.873Z,5.00
2019-02-15T05:15:03.333Z,5.10
2019-02-15T05:17:32.697Z,5.10
2019-02-15T05:20:02.121Z,5.20
2019-02-15T05:22:31.504Z,5.10
2019-02-15T05:25:00.914Z,5.10
2019-02-15T05:27:30.343Z,5.10
2019-02-15T05:29:59.809Z,5.10
2019-02-15T05:32:29.277Z,5.00
2019-02-15T05:34:58.716Z,5.00
2019-02-15T05:37:28.140Z,5.10
2019-02-15T05:39:57.578Z,5.10
2019-02-15T05:42:27.011Z,5.10
2019-02-15T05:45:03.347Z,5.10
2019-02-15T05:47:25.878Z,5.10
2019-02-15T05:49:55.304Z,5.10
2019-02-15T05:52:24.741Z,5.10
2019-02-15T05:54:54.198Z,5.00
2019-02-15T05:57:26.448Z,5.10
2019-02-15T05:59:55.921Z,5.20
2019-02-15T06:02:25.394Z,5.20
2019-02-15T06:04:54.930Z,5.20
2019-02-15T06:07:24.385Z,5.20
2019-02-15T06:09:53.846Z,5.20
2019-02-15T06:12:23.496Z,5.20
2019-02-15T06:14:52.926Z,5.30
2019-02-15T06:17:22.365Z,5.20
2019-02-15T06:19:51.786Z,5.20
2019-02-15T06:22:21.357Z,5.30
2019-02-15T06:24:50.735Z,5.10
2019-02-15T06:27:20.133Z,4.70
2019-02-15T06:29:49.513Z,4.60
2019-02-15T06:32:18.982Z,4.70
2019-02-15T06:34:48.409Z,4.50
2019-02-15T06:37:17.805Z,4.60
2019-02-15T06:39:47.357Z,4.60
2019-02-15T06:42:16.857Z,4.60
2019-02-15T06:44:46.254Z,4.40
2019-02-15T06:47:15.922Z,4.20
2019-02-15T06:49:46.109Z,4.20
2019-02-15T06:52:15.410Z,4.30
2019-02-15T06:54:44.749Z,4.40
2019-02-15T06:57:14.214Z,4.60
2019-02-15T06:59:47.652Z,4.70
2019-02-15T07:02:23.955Z,4.80
2019-02-15T07:05:56.873Z,5.00
2019-02-15T07:08:26.277Z,5.00
2019-02-15T07:10:56.360Z,5.00
2019-02-15T07:13:25.683Z,5.00
2019-02-15T07:15:54.980Z,5.00
2019-02-15T07:18:24.331Z,5.10
2019-02-15T07:20:53.893Z,5.10
2019-02-15T07:23:23.865Z,5.20
2019-02-15T07:25:54.410Z,5.40
2019-02-15T07:28:26.872Z,5.40
2019-02-15T07:30:58.374Z,5.30
2019-02-15T07:33:27.738Z,5.30
2019-02-15T07:35:57.083Z,5.30
2019-02-15T07:38:26.469Z,5.30
2019-02-15T07:40:55.938Z,5.30
2019-02-15T07:43:25.298Z,5.40
2019-02-15T07:45:55.377Z,5.50
2019-02-15T07:48:24.754Z,5.50
2019-02-15T07:50:54.591Z,5.50
2019-02-15T07:53:23.591Z,5.50
2019-02-15T07:55:54.180Z,5.60
2019-02-15T07:58:23.513Z,5.60
2019-02-15T08:00:53.631Z,5.70
2019-02-15T08:03:23.735Z,5.70
2019-02-15T08:05:57.485Z,5.70
2019-02-15T08:08:27.616Z,5.80
2019-02-15T08:10:58.914Z,5.90
2019-02-15T08:13:28.756Z,6.00
2019-02-15T08:15:59.101Z,6.00
2019-02-15T08:18:28.399Z,6.10
2019-02-15T08:20:58.747Z,6.10
2019-02-15T08:23:28.654Z,6.20
2019-02-15T08:25:58.046Z,6.20
2019-02-15T08:28:27.397Z,6.20
2019-02-15T08:30:56.870Z,6.20
2019-02-15T08:33:26.169Z,6.20
2019-02-15T08:35:55.578Z,6.30
2019-02-15T08:38:24.928Z,6.40
2019-02-15T08:40:54.480Z,6.30
2019-02-15T08:43:23.788Z,6.40
2019-02-15T08:46:00.602Z,6.40
2019-02-15T08:48:22.476Z,6.50
2019-02-15T08:50:51.806Z,6.50
2019-02-15T08:53:21.204Z,6.50
2019-02-15T08:55:50.965Z,6.60
2019-02-15T08:58:20.286Z,6.60
2019-02-15T09:00:49.960Z,6.60
2019-02-15T09:03:19.353Z,6.70
2019-02-15T09:05:48.852Z,6.80
2019-02-15T09:08:18.203Z,6.90
2019-02-15T09:10:47.614Z,7.00
2019-02-15T09:13:17.073Z,7.00
2019-02-15T09:15:46.620Z,7.10
2019-02-15T09:18:17.740Z,7.20
2019-02-15T09:20:47.251Z,7.20
2019-02-15T09:23:16.602Z,7.20
2019-02-15T09:25:45.935Z,7.20
2019-02-15T09:28:24.249Z,7.20
2019-02-15T09:30:54.841Z,7.10
2019-02-15T09:33:24.785Z,7.30
2019-02-15T09:35:54.177Z,7.30
2019-02-15T09:38:23.576Z,7.40
2019-02-15T09:40:53.555Z,7.50
2019-02-15T09:43:24.860Z,7.60
2019-02-15T09:45:55.429Z,7.60
2019-02-15T09:48:24.782Z,7.70
2019-02-15T09:50:54.169Z,7.80
2019-02-15T09:53:23.799Z,7.80
2019-02-15T09:55:53.250Z,7.90
2019-02-15T09:58:23.109Z,8.00
2019-02-15T10:00:53.307Z,8.10
2019-02-15T10:03:23.688Z,8.10
2019-02-15T10:05:53.092Z,8.20
2019-02-15T10:08:24.004Z,8.20
2019-02-15T10:10:53.419Z,8.30
2019-02-15T10:13:22.847Z,8.40
2019-02-15T10:15:52.259Z,8.40
2019-02-15T10:18:21.608Z,8.50
2019-02-15T10:20:55.749Z,8.50
2019-02-15T10:23:25.939Z,8.60
2019-02-15T10:25:55.227Z,8.60
2019-02-15T10:28:25.363Z,8.80
2019-02-15T10:30:55.889Z,8.80
2019-02-15T10:33:25.391Z,8.90
2019-02-15T10:35:54.764Z,8.90
2019-02-15T10:38:25.303Z,8.90
2019-02-15T10:40:55.720Z,9.00
2019-02-15T10:43:25.869Z,9.10
2019-02-15T10:45:55.236Z,9.20
2019-02-15T10:48:24.614Z,9.30
2019-02-15T10:50:54.136Z,9.30
2019-02-15T10:53:23.849Z,9.30
2019-02-15T10:55:53.217Z,9.40
2019-02-15T10:58:22.614Z,9.40
2019-02-15T11:00:52.105Z,9.50
2019-02-15T11:03:22.017Z,9.60
2019-02-15T11:05:51.401Z,9.70
2019-02-15T11:08:20.752Z,9.70
2019-02-15T11:10:50.620Z,9.80
2019-02-15T11:13:20.000Z,9.90
2019-02-15T11:15:49.404Z,9.90
2019-02-15T11:18:18.852Z,10.00
2019-02-15T11:20:48.879Z,10.00
2019-02-15T11:23:18.790Z,10.10
2019-02-15T11:25:49.204Z,10.20
2019-02-15T11:28:19.186Z,10.20
2019-02-15T11:30:48.622Z,10.30
2019-02-15T11:33:19.551Z,10.40
2019-02-15T11:35:50.461Z,10.50
2019-02-15T11:38:20.349Z,10.60
2019-02-15T11:40:49.754Z,10.70
2019-02-15T11:43:19.076Z,10.70
2019-02-15T11:45:49.971Z,10.80
2019-02-15T11:48:21.339Z,10.90
2019-02-15T11:50:51.276Z,10.90
2019-02-15T11:53:20.672Z,11.00
2019-02-15T11:55:50.752Z,11.10
2019-02-15T11:58:20.546Z,11.20
2019-02-15T12:00:50.622Z,11.20
2019-02-15T12:03:20.076Z,11.30
2019-02-15T12:05:50.434Z,11.40
2019-02-15T12:08:19.777Z,11.50
2019-02-15T12:10:49.156Z,11.60
2019-02-15T12:13:18.613Z,11.60
2019-02-15T12:15:48.407Z,11.70
2019-02-15T12:18:17.826Z,11.70
2019-02-15T12:20:47.517Z,11.80
2019-02-15T12:23:16.865Z,11.90
2019-02-15T12:25:46.197Z,12.00
2019-02-15T12:28:16.193Z,12.00
2019-02-15T12:30:46.978Z,12.00
2019-02-15T12:33:16.369Z,12.10
2019-02-15T12:35:46.617Z,12.10
2019-02-15T12:38:17.075Z,12.20
2019-02-15T12:40:46.512Z,12.20
2019-02-15T12:43:15.851Z,12.30
2019-02-15T12:45:45.236Z,12.40
2019-02-15T12:48:14.791Z,12.40
2019-02-15T12:50:44.133Z,12.50
2019-02-15T12:53:19.279Z,12.60
2019-02-15T12:55:48.669Z,12.60
2019-02-15T12:58:18.175Z,12.70
2019-02-15T13:00:48.474Z,12.80
2019-02-15T13:03:17.846Z,12.90
2019-02-15T13:05:47.662Z,13.00
2019-02-15T13:08:18.939Z,13.10
2019-02-15T13:10:49.780Z,13.20
2019-02-15T13:13:19.108Z,13.20
2019-02-15T13:15:48.469Z,13.20
2019-02-15T13:18:17.838Z,13.30
2019-02-15T13:20:47.160Z,13.30
2019-02-15T13:23:17.500Z,13.40
2019-02-15T13:25:46.882Z,13.40
2019-02-15T13:28:17.061Z,13.40
2019-02-15T13:30:46.411Z,13.50
2019-02-15T13:33:15.732Z,13.60
2019-02-15T13:35:45.082Z,13.60
2019-02-15T13:38:14.557Z,13.60
2019-02-15T13:40:43.895Z,13.70
2019-02-15T13:43:13.942Z,13.70
2019-02-15T13:45:45.820Z,13.80
2019-02-15T13:48:16.101Z,13.80
2019-02-15T13:50:45.449Z,13.90
2019-02-15T13:53:15.801Z,14.00
2019-02-15T13:55:46.953Z,14.00
2019-02-15T13:58:17.110Z,14.10
2019-02-15T14:00:49.132Z,14.20
2019-02-15T14:03:18.484Z,14.30
2019-02-15T14:05:49.013Z,14.30
2019-02-15T14:08:18.437Z,14.30
2019-02-15T14:10:47.776Z,14.40
2019-02-15T14:13:17.139Z,14.50
2019-02-15T14:15:46.523Z,14.70
2019-02-15T14:18:15.916Z,14.70
2019-02-15T14:20:45.266Z,14.80
2019-02-15T14:23:14.671Z,15.00
2019-02-15T14:25:44.506Z,15.10
2019-02-15T14:28:14.694Z,15.30
2019-02-15T14:30:44.049Z,15.50
2019-02-15T14:33:13.425Z,15.60
2019-02-15T14:35:43.562Z,15.60
2019-02-15T14:38:13.069Z,15.60
2019-02-15T14:40:42.627Z,15.60
2019-02-15T14:43:12.955Z,16.30
2019-02-15T14:45:42.347Z,17.70
2019-02-15T14:48:11.820Z,19.10
2019-02-15T14:50:41.150Z,21.40
2019-02-15T14:53:10.588Z,24.20
2019-02-15T14:55:40.010Z,27.30
2019-02-15T14:58:09.515Z,30.20
2019-02-15T15:00:39.044Z,31.20
2019-02-15T15:03:08.438Z,32.50
2019-02-15T15:05:37.892Z,31.20
2019-02-15T15:08:07.381Z,31.10
2019-02-15T15:10:36.848Z,31.30
2019-02-15T15:13:07.152Z,29.80
2019-02-15T15:15:36.608Z,28.10
2019-02-15T15:18:12.714Z,27.50
2019-02-15T15:20:35.717Z,27.20
2019-02-15T15:23:05.762Z,27.30
2019-02-15T15:25:36.099Z,25.70
2019-02-15T15:28:09.168Z,23.90
2019-02-15T15:30:38.614Z,21.50
2019-02-15T15:33:08.314Z,20.40
2019-02-15T15:35:38.284Z,19.80
2019-02-15T15:38:08.377Z,19.10
2019-02-15T15:40:39.168Z,18.30
2019-02-15T15:43:09.294Z,17.40
2019-02-15T15:45:39.416Z,16.90
2019-02-15T15:48:08.921Z,16.40
2019-02-15T15:50:40.143Z,15.90
2019-02-15T15:53:08.014Z,15.50
2019-02-15T15:55:37.362Z,15.20
2019-02-15T15:58:06.765Z,14.80
2019-02-15T16:00:39.078Z,14.70
2019-02-15T16:03:05.868Z,14.70
2019-02-15T16:05:35.239Z,14.50
2019-02-15T16:08:04.632Z,14.30
2019-02-15T16:10:34.061Z,14.20
2019-02-15T16:13:03.584Z,14.00
2019-02-15T16:15:33.090Z,13.90
2019-02-15T16:18:02.500Z,13.80
2019-02-15T16:20:31.842Z,13.70
2019-02-15T16:23:01.256Z,13.50
2019-02-15T16:25:30.712Z,13.50
2019-02-15T16:28:00.194Z,13.50
2019-02-15T16:30:29.574Z,13.50
2019-02-15T16:32:59.006Z,13.40
2019-02-15T16:35:28.408Z,13.30
2019-02-15T16:37:57.854Z,13.10
2019-02-15T16:40:27.190Z,12.90
2019-02-15T16:42:56.649Z,12.90
2019-02-15T16:45:32.729Z,12.80
2019-02-15T16:48:02.106Z,12.80
2019-02-15T16:50:31.454Z,12.70
2019-02-15T16:53:00.826Z,12.70
2019-02-15T16:55:30.210Z,12.60
2019-02-15T16:57:59.581Z,12.50
2019-02-15T17:00:29.315Z,12.40
2019-02-15T17:02:58.758Z,12.40
2019-02-15T17:05:28.196Z,12.30
2019-02-15T17:08:00.573Z,12.30
2019-02-15T17:10:30.030Z,12.20
2019-02-15T17:12:59.494Z,12.10
2019-02-15T17:15:28.915Z,12.00
2019-02-15T17:17:58.382Z,12.00
2019-02-15T17:20:27.831Z,12.00
2019-02-15T17:22:57.279Z,11.90
2019-02-15T17:25:26.773Z,11.80
2019-02-15T17:27:56.144Z,11.80
2019-02-15T17:30:25.574Z,11.70
2019-02-15T17:32:55.014Z,11.60
2019-02-15T17:35:24.609Z,11.60
2019-02-15T17:37:53.969Z,11.50
2019-02-15T17:40:23.539Z,11.50
2019-02-15T17:42:52.960Z,11.40
2019-02-15T17:45:22.494Z,11.40
2019-02-15T17:47:51.845Z,11.40
2019-02-15T17:50:21.364Z,11.40
2019-02-15T17:52:50.934Z,11.30
2019-02-15T17:55:20.290Z,11.30
2019-02-15T17:57:49.612Z,11.30
2019-02-15T18:00:20.133Z,11.30
2019-02-15T18:02:50.269Z,11.20
2019-02-15T18:05:19.700Z,11.20
2019-02-15T18:07:51.311Z,11.10
2019-02-15T18:10:21.308Z,11.10
2019-02-15T18:12:50.676Z,11.00
2019-02-15T18:15:20.091Z,11.00
2019-02-15T18:17:49.604Z,11.00
2019-02-15T18:20:19.124Z,11.00
2019-02-15T18:22:48.512Z,10.90
2019-02-15T18:25:17.857Z,10.90
2019-02-15T18:27:47.243Z,10.90
2019-02-15T18:30:16.721Z,10.80
2019-02-15T18:32:46.080Z,10.80
2019-02-15T18:35:15.409Z,10.80
2019-02-15T18:37:47.240Z,10.80
2019-02-15T18:40:17.988Z,10.70
2019-02-15T18:42:49.065Z,10.70
2019-02-15T18:45:18.528Z,10.60
2019-02-15T18:47:48.209Z,10.60
2019-02-15T18:50:17.428Z,10.60
2019-02-15T18:52:47.556Z,10.60
2019-02-15T18:55:16.863Z,10.60
2019-02-15T18:57:46.789Z,10.60
2019-02-15T19:00:16.842Z,10.60
2019-02-15T19:02:46.339Z,10.60
2019-02-15T19:05:22.666Z,10.60
2019-02-15T19:07:52.057Z,10.50
2019-02-15T19:10:21.678Z,10.50
2019-02-15T19:12:51.032Z,10.50
2019-02-15T19:15:20.452Z,10.40
2019-02-15T19:17:49.835Z,10.40
2019-02-15T19:20:19.333Z,10.40
2019-02-15T19:22:49.738Z,10.40
2019-02-15T19:25:19.231Z,10.30
2019-02-15T19:27:48.618Z,10.30
2019-02-15T19:30:21.476Z,10.30
2019-02-15T19:32:50.845Z,10.30
2019-02-15T19:35:20.200Z,10.30
2019-02-15T19:37:49.689Z,10.20
2019-02-15T19:40:19.314Z,10.20
2019-02-15T19:42:50.879Z,10.20
2019-02-15T19:45:20.215Z,10.20
2019-02-15T19:47:49.848Z,10.20
2019-02-15T19:50:19.318Z,10.10
2019-02-15T19:52:48.996Z,10.10
2019-02-15T19:55:18.357Z,10.10
2019-02-15T19:57:47.838Z,10.10
2019-02-15T20:00:18.659Z,10.10
2019-02-15T20:02:48.116Z,10.20
2019-02-15T20:05:17.548Z,10.20
2019-02-15T20:07:46.920Z,10.10
2019-02-15T20:10:19.166Z,10.20
2019-02-15T20:12:48.653Z,10.10
2019-02-15T20:15:19.039Z,10.10
2019-02-15T20:17:48.449Z,10.20
2019-02-15T20:20:17.817Z,10.20
2019-02-15T20:22:47.277Z,10.20
2019-02-15T20:25:16.652Z,10.20
2019-02-15T20:27:47.063Z,10.10
2019-02-15T20:30:18.166Z,10.10
2019-02-15T20:32:47.538Z,10.10
2019-02-15T20:35:16.830Z,10.10
2019-02-15T20:37:46.310Z,10.10
2019-02-15T20:40:15.651Z,10.10
2019-02-15T20:42:45.005Z,10.10
2019-02-15T20:45:17.245Z,10.10
2019-02-15T20:47:46.672Z,10.00
2019-02-15T20:50:16.197Z,10.00
2019-02-15T20:52:45.673Z,10.00
2019-02-15T20:55:15.524Z,9.90
2019-02-15T20:57:46.284Z,9.90
2019-02-15T21:00:19.617Z,9.90
2019-02-15T21:02:49.083Z,9.90
2019-02-15T21:05:18.431Z,9.90
2019-02-15T21:07:48.174Z,9.90
2019-02-15T21:10:17.323Z,9.90
2019-02-15T21:12:46.637Z,9.80
2019-02-15T21:15:15.982Z,9.80
2019-02-15T21:17:45.351Z,9.80
2019-02-15T21:20:14.764Z,9.80
2019-02-15T21:22:44.990Z,9.70
2019-02-15T21:25:14.400Z,9.70
2019-02-15T21:27:43.697Z,9.70
2019-02-15T21:30:14.414Z,9.70
2019-02-15T21:32:44.294Z,9.70
2019-02-15T21:35:13.942Z,9.70
2019-02-15T21:37:43.316Z,9.70
2019-02-15T21:40:14.116Z,9.70
2019-02-15T21:42:43.649Z,9.70
2019-02-15T21:45:13.068Z,9.70
2019-02-15T21:47:42.444Z,9.70
2019-02-15T21:50:17.043Z,9.60
2019-02-15T21:52:44.431Z,9.60
2019-02-15T21:55:11.845Z,9.60
2019-02-15T21:57:41.248Z,9.50
2019-02-15T22:00:14.920Z,9.60
2019-02-15T22:02:44.291Z,9.60
2019-02-15T22:05:13.636Z,9.50
2019-02-15T22:07:43.107Z,9.50
2019-02-15T22:10:12.471Z,9.40
2019-02-15T22:12:41.869Z,9.40
2019-02-15T22:15:12.056Z,9.40
2019-02-15T22:17:41.439Z,9.40
2019-02-15T22:20:13.219Z,9.30
2019-02-15T22:22:42.616Z,9.30
2019-02-15T22:25:12.553Z,9.30
2019-02-15T22:27:42.108Z,9.30
2019-02-15T22:30:13.452Z,9.30
2019-02-15T22:32:42.898Z,9.30
2019-02-15T22:35:13.612Z,9.30
2019-02-15T22:37:43.426Z,9.30
2019-02-15T22:40:27.877Z,9.30
2019-02-15T22:42:58.552Z,9.20
2019-02-15T22:45:28.035Z,9.20
2019-02-15T22:47:57.406Z,9.10
2019-02-15T22:50:35.319Z,9.20
2019-02-15T22:52:56.815Z,9.20
2019-02-15T22:55:26.132Z,9.10
2019-02-15T22:57:55.508Z,9.00
2019-02-15T23:00:37.854Z,9.00
2019-02-15T23:03:08.195Z,9.00
2019-02-15T23:05:38.257Z,8.90
2019-02-15T23:08:07.574Z,8.80
2019-02-15T23:10:36.983Z,8.80
2019-02-15T23:13:06.382Z,8.80
2019-02-15T23:15:35.942Z,8.70
2019-02-15T23:18:05.316Z,8.70
2019-02-15T23:20:34.732Z,8.60
2019-02-15T23:23:04.180Z,8.60
2019-02-15T23:25:33.504Z,8.60
2019-02-15T23:28:02.884Z,8.60
2019-02-15T23:30:32.283Z,8.50
2019-02-15T23:33:02.228Z,8.50
2019-02-15T23:35:31.621Z,8.50
2019-02-15T23:38:01.072Z,8.50
2019-02-15T23:40:30.471Z,8.40
2019-02-15T23:43:00.017Z,8.40
2019-02-15T23:45:29.416Z,8.40
2019-02-15T23:47:59.556Z,8.40
2019-02-15T23:50:28.925Z,8.40
2019-02-15T23:52:59.613Z,8.30
2019-02-15T23:55:29.572Z,8.20
2019-02-15T23:57:58.913Z,8.20
